logo
Search for airport 
image banner adimage banner adimage banner ad
image banner ad

MMCGB - Rincon De Maria

Located in Melchor Muzquiz, Mexico

ICAO - , IATA -

Data provided by Airmate  

General information

Coordinates: N28°33'30" W102°3'55"
Elevation is 2798 feet MSL.
Magnetic variation is 5° East
View others Airports in Coahuila

Operational data

Special qualification required
Current time UTC:
Current local time:
Weather at : - ( 0 km )
METAR: YCFS 180651Z AUTO 09005KT 4500 -TSGR SCT009 SCT024 BKN049 15/13 Q1014 RESHRA
View NOTAMs / SUP AIP / TFR affecting this airport [VIEW]
Communications frequencies: [VIEW]

Runways:

RWY identifierQFULength (ft)Width (ft)SurfaceLDA (ft)
29297°470469ASPH
11117°470469ASPH

Airport contact information

Address: Melchor Muzquiz Mexico

Satellite view of MMCGB